Terminal Aerodrome Forecast
Issued by NWS Bismarck, ND

Home | Current Version | Previous Version | Text Only | Print | Product List | Glossary On
Versions: 1 2 3 4 5 6 7 8 9 10 11 12 13 14 15 16 17 18 19 20 21 22 23
000
FTUS43 KBIS 011100
TAFBIS
TAF
KBIS 011135Z 0112/0212 VRB04KT P6SM SCT100
     FM011800 31010G16KT P6SM SCT100=

USA.gov is the U.S. government's official web portal to all federal, state and local government web resources and services.